Startpagina
METAR-TAF:

METAR-TAF

Vliegvelden :

Gibraltar Airport

Gibraltar, Gibraltar

breedte: 36-09N, lengte: 005-21W, hoogte: 5 m

Actueel weer

Dit bericht is 1 uur en het 14 minuten geleden gemaakt, om 13:50 UTC
Wind 3 kt uit het zuiden
Temperatuur 20°C
Vochtigheid 46%
Druk 1023 hPa
Zicht 10 km of meer
geen wolken onder 1500 m en geen cumulonimbus

METAR: LXGB 261350Z 17003KT CAVOK 20/08 Q1023 NOSIG

Tijdstip: 17:04 (15:04 UTC)

Verwachting

Dit bericht is 1 uur en het 34 minuten geleden gemaakt, om 13:30 UTC
Verwachting geldig van 26 om 15 UTC tot 26 om 22 UTC
Wind 5 kt uit variabele richting
Zicht 10 km of meer
geen wolken onder 1500 m en geen cumulonimbus

TAF: LXGB 261330Z 2615/2622 VRB05KT CAVOK

Waarnemingen en weersverwachtingen van meer dan 4000 vliegvelden (METAR en TAF).

De beschikbare stations zijn de gele en rode punten op de kaart.

Ga met uw muis naar het station om de naam te zien.

Klik dan om waarnemingen en weersverwachtingen te zien.

kaart wijzigen: klik op de groene knoppen met een zwart kruis om in te zoomen, op de groene knop met een streepje om uit te zoomen of op de groene pijlen voor aangrenzende kaarten.


METAR-TAF: